Weather reports worldwide

Advertisment
Menorca Airport, Spain (2008314): temperature & dewpoint: 04.12.2018 11:00:00 - 10.12.2018 11:00:00 (CET)Menorca Airport, Spain (2008314): wind speed: 04.12.2018 11:00:00 - 10.12.2018 11:00:00 (CET)Menorca Airport, Spain (2008314): wind direction: 04.12.2018 11:00:00 - 10.12.2018 11:00:00 (CET)Menorca Airport, Spain (2008314): visibility: 04.12.2018 11:00:00 - 10.12.2018 11:00:00 (CET)
Date & Time tt [°C] td [°C] ff [km/h] ff [kn] dd vv [km]
10.12.2018 11:00:00 - - - - - -
10.12.2018 10:00:00 14,0 10,0 15 8 N 10
10.12.2018 09:00:00 13,0 10,0 16 9 N 10
10.12.2018 08:00:00 13,0 10,0 9 5 N 10
10.12.2018 07:00:00 13,0 10,0 13 7 N 10
10.12.2018 06:00:00 13,0 9,0 15 8 NNE 10
10.12.2018 05:00:00 13,0 9,0 18 10 N 10
10.12.2018 04:00:00 12,0 9,0 15 8 NNE 10
10.12.2018 03:00:00 12,0 9,0 18 10 NNE 10
10.12.2018 02:00:00 12,0 9,0 16 9 NNE 10
10.12.2018 01:00:00 13,0 9,0 24 13 NNE 10
10.12.2018 00:00:00 13,0 9,0 16 9 NNE 10
09.12.2018 23:00:00 13,0 10,0 21 11 NNE 10
09.12.2018 22:00:00 11,0 9,0 5 3 N 10
09.12.2018 21:00:00 11,0 10,0 9 5 N 10
09.12.2018 20:00:00 12,0 10,0 13 7 N 10
09.12.2018 19:00:00 13,0 9,0 9 5 NW 10
09.12.2018 18:00:00 14,0 9,0 11 6 NW 10
09.12.2018 17:00:00 16,0 9,0 18 10 WNW 10
09.12.2018 16:00:00 17,0 8,0 24 13 WNW 10
09.12.2018 15:00:00 18,0 11,0 21 11 WNW 10
09.12.2018 14:00:00 17,0 10,0 28 15 WNW 10
09.12.2018 13:00:00 18,0 10,0 28 15 WNW 10
09.12.2018 12:00:00 17,0 12,0 16 9 W 10
09.12.2018 11:00:00 16,0 13,0 21 11 W 10
09.12.2018 10:00:00 15,0 13,0 15 8 WSW 10
09.12.2018 09:00:00 14,0 12,0 13 7 W 10
09.12.2018 08:00:00 14,0 12,0 16 9 W 10
09.12.2018 07:00:00 13,0 11,0 16 9 W 10
09.12.2018 06:00:00 13,0 10,0 15 8 WSW 10
09.12.2018 05:00:00 13,0 9,0 15 8 W 10
09.12.2018 04:00:00 12,0 9,0 11 6 WSW 10
09.12.2018 03:00:00 10,0 8,0 8 4 W 10
09.12.2018 02:00:00 10,0 9,0 5 3 W 10
09.12.2018 01:00:00 11,0 8,0 8 4 WNW 10
09.12.2018 00:00:00 12,0 9,0 11 6 W 10
08.12.2018 23:00:00 13,0 9,0 15 8 W 10
08.12.2018 22:00:00 11,0 9,0 4 2 W 10
08.12.2018 21:00:00 10,0 8,0 4 2 W 10
08.12.2018 20:00:00 10,0 8,0 8 4 W 10
08.12.2018 19:00:00 11,0 9,0 2 1 W 10
08.12.2018 18:00:00 12,0 10,0 2 1 - 10
08.12.2018 17:00:00 13,0 10,0 8 4 NNE 10
08.12.2018 16:00:00 14,0 9,0 13 7 NNE 10
08.12.2018 15:00:00 14,0 9,0 15 8 NNE 10
08.12.2018 14:00:00 14,0 9,0 24 13 NNE 10
08.12.2018 13:00:00 14,0 9,0 22 12 NNE 10
08.12.2018 12:00:00 14,0 8,0 26 14 NNE 10
08.12.2018 11:00:00 14,0 8,0 29 16 NNE 10
08.12.2018 10:00:00 14,0 8,0 29 16 NNE 10
08.12.2018 09:00:00 13,0 8,0 24 13 NNE 10
08.12.2018 08:00:00 13,0 9,0 22 12 NNE 10
08.12.2018 07:00:00 12,0 10,0 21 11 NE 10
08.12.2018 06:00:00 12,0 11,0 5 3 N 7
08.12.2018 05:00:00 11,0 11,0 8 4 NNW 10
08.12.2018 04:00:00 11,0 10,0 5 3 NNW 10
08.12.2018 03:00:00 11,0 10,0 4 2 NNW 4,6
08.12.2018 02:00:00 12,0 11,0 5 3 NW 9
08.12.2018 01:00:00 12,0 11,0 8 4 NW 10
08.12.2018 00:00:00 12,0 11,0 2 1 NW 10
07.12.2018 23:00:00 12,0 11,0 5 3 W 10
07.12.2018 22:00:00 12,0 10,0 9 5 NNW 10
07.12.2018 21:00:00 14,0 12,0 9 5 WNW 10
07.12.2018 20:00:00 14,0 12,0 13 7 W 10
07.12.2018 19:00:00 13,0 12,0 5 3 WNW 10
07.12.2018 18:00:00 13,0 11,0 4 2 W 9
07.12.2018 17:00:00 14,0 12,0 4 2 WNW 10
07.12.2018 16:00:00 15,0 12,0 2 1 - 10
07.12.2018 15:00:00 16,0 12,0 5 3 W 10
07.12.2018 14:00:00 16,0 12,0 11 6 W 10
07.12.2018 13:00:00 17,0 10,0 13 7 W 10
07.12.2018 12:00:00 16,0 13,0 15 8 W 10
07.12.2018 11:00:00 16,0 12,0 15 8 W 10
07.12.2018 10:00:00 15,0 12,0 8 4 W 10
07.12.2018 09:00:00 13,0 12,0 5 3 WNW 10
07.12.2018 08:00:00 12,0 10,0 11 6 WNW 10
07.12.2018 07:00:00 12,0 10,0 4 2 - 10
07.12.2018 06:00:00 13,0 11,0 11 6 NW 10
07.12.2018 05:00:00 12,0 11,0 8 4 NNW 10
07.12.2018 04:00:00 12,0 11,0 9 5 NW 10
07.12.2018 03:00:00 13,0 12,0 8 4 WNW 10
07.12.2018 02:00:00 12,0 11,0 5 3 NW 7
07.12.2018 01:00:00 12,0 11,0 4 2 - 10
07.12.2018 00:00:00 12,0 10,0 5 3 NNW 10
06.12.2018 23:00:00 12,0 11,0 9 5 NNW 10
06.12.2018 22:00:00 12,0 11,0 13 7 NNW 10
06.12.2018 21:00:00 12,0 11,0 8 4 WNW 10
06.12.2018 20:00:00 12,0 11,0 5 3 WNW 10
06.12.2018 19:00:00 13,0 11,0 5 3 NW 10
06.12.2018 18:00:00 14,0 12,0 5 3 NNW 10
06.12.2018 17:00:00 15,0 12,0 5 3 NNW 10
06.12.2018 16:00:00 16,0 13,0 11 6 N 10
06.12.2018 15:00:00 16,0 12,0 16 9 N 10
06.12.2018 14:00:00 17,0 12,0 22 12 N 10
06.12.2018 13:00:00 18,0 12,0 18 10 N 10
06.12.2018 12:00:00 17,0 13,0 21 11 NNE 10
06.12.2018 11:00:00 17,0 13,0 16 9 NNE 10
06.12.2018 10:00:00 15,0 14,0 8 4 N 10
06.12.2018 09:00:00 12,0 12,0 4 2 WNW 10
06.12.2018 08:00:00 11,0 11,0 8 4 NNW 8
06.12.2018 07:00:00 12,0 11,0 5 3 N 7
06.12.2018 06:00:00 12,0 12,0 8 4 NNW 8
06.12.2018 05:00:00 12,0 11,0 9 5 N 10
06.12.2018 04:00:00 12,0 12,0 11 6 N 9
06.12.2018 03:00:00 15,0 14,0 4 2 - 9
06.12.2018 02:00:00 15,0 14,0 15 8 WSW 10
06.12.2018 01:00:00 14,0 14,0 16 9 W 10
06.12.2018 00:00:00 15,0 14,0 16 9 W 10
05.12.2018 23:00:00 14,0 14,0 15 8 WSW 10
05.12.2018 22:00:00 14,0 14,0 16 9 SW 9
05.12.2018 21:00:00 15,0 14,0 11 6 SW 8
05.12.2018 20:00:00 14,0 14,0 9 5 SSW 0,9
05.12.2018 19:00:00 14,0 14,0 9 5 SSW 0,1
05.12.2018 18:00:00 15,0 15,0 8 4 SSW 0,1
05.12.2018 17:00:00 16,0 15,0 8 4 S 10
05.12.2018 16:00:00 18,0 15,0 5 3 SSW 10
05.12.2018 15:00:00 18,0 12,0 8 4 SW 10
05.12.2018 14:00:00 18,0 12,0 9 5 WSW 10
05.12.2018 13:00:00 17,0 14,0 11 6 W 10
05.12.2018 12:00:00 17,0 15,0 11 6 WSW 10
05.12.2018 11:00:00 16,0 15,0 11 6 W 10
05.12.2018 10:00:00 15,0 14,0 5 3 WSW 10
05.12.2018 09:00:00 14,0 13,0 4 2 WSW 10
05.12.2018 08:00:00 13,0 12,0 8 4 W 10
05.12.2018 07:00:00 10,0 9,0 5 3 W 10
05.12.2018 06:00:00 9,0 8,0 5 3 W 10
05.12.2018 05:00:00 12,0 12,0 4 2 - 9
05.12.2018 04:00:00 12,0 11,0 2 1 WSW 10
05.12.2018 03:00:00 11,0 10,0 0 0 N 10
05.12.2018 02:00:00 - - 2 1 WSW 9
05.12.2018 01:00:00 9,0 9,0 2 1 WSW 10
05.12.2018 00:00:00 10,0 10,0 0 0 N 10
04.12.2018 23:00:00 10,0 9,0 0 0 N 10
04.12.2018 22:00:00 11,0 10,0 0 0 N 10
04.12.2018 21:00:00 13,0 11,0 8 4 NNE 10
04.12.2018 20:00:00 13,0 11,0 8 4 NNE 10
04.12.2018 19:00:00 13,0 11,0 5 3 N 10
04.12.2018 18:00:00 15,0 12,0 0 0 N 10
04.12.2018 17:00:00 17,0 14,0 0 0 N 10
04.12.2018 16:00:00 18,0 14,0 2 1 - 10
04.12.2018 15:00:00 19,0 13,0 0 0 N 10
04.12.2018 14:00:00 18,0 14,0 5 3 S 10
04.12.2018 13:00:00 18,0 14,0 4 2 - 10
04.12.2018 12:00:00 18,0 14,0 5 3 NE 10
04.12.2018 11:00:00 17,0 13,0 5 3 NNE 10

tt = temperature
td = dewpoint
ff = wind speed
dd = wind direction
vv = visibility

Next stations